Time;durP1;ratioP1;P1;durP2;ratioP2;P2;SDS_P1;SDS_P2;PMS_P1;PMS_P2;Temp;Humidity;BMP_temperature;BMP_pressure;BME280_temperature;BME280_humidity;BME280_pressure;Samples;Min_cycle;Max_cycle;Signal;HPM_P1;HPM_P2
2022/01/18 00:00:14;;;;;;;8.50;5.13;;;;;;;0.54;nan;101437.03;5056514;28;20040;-69
2022/01/18 00:02:39;;;;;;;11.90;5.85;;;;;;;0.47;nan;101434.16;5064985;28;20044;-68
2022/01/18 00:05:07;;;;;;;10.50;6.35;;;;;;;0.54;nan;101447.41;5059909;28;20059;-68
2022/01/18 00:07:32;;;;;;;10.77;6.10;;;;;;;0.53;nan;101445.78;5069086;28;20127;-69
2022/01/18 00:09:58;;;;;;;11.32;5.57;;;;;;;0.48;nan;101453.09;5073967;28;20107;-69
2022/01/18 00:12:53;;;;;;;10.10;5.25;;;;;;;0.17;nan;101415.13;5073495;28;20044;-70
2022/01/18 00:15:29;;;;;;;11.52;5.60;;;;;;;0.42;nan;101464.81;5073144;28;20570;-70
2022/01/18 00:18:06;;;;;;;9.05;4.95;;;;;;;0.28;nan;101460.00;5078658;28;20021;-68
2022/01/18 00:23:21;;;;;;;8.75;4.25;;;;;;;0.17;nan;101458.34;5073567;28;20032;-69
2022/01/18 00:25:51;;;;;;;7.38;4.22;;;;;;;-0.05;nan;101438.59;5060581;28;20054;-70
2022/01/18 00:28:17;;;;;;;7.85;4.03;;;;;;;0.21;nan;101501.97;5054573;28;20086;-69
2022/01/18 00:35:45;;;;;;;5.85;3.55;;;;;;;0.16;nan;101517.06;5069575;28;20032;-70
2022/01/18 00:38:29;;;;;;;13.65;5.22;;;;;;;0.11;nan;101516.66;5073029;28;20041;-69
2022/01/18 00:40:55;;;;;;;15.05;6.00;;;;;;;0.09;nan;101512.53;5072218;28;20040;-69
2022/01/18 00:43:20;;;;;;;10.45;4.78;;;;;;;0.02;nan;101514.00;5068553;28;20311;-68
2022/01/18 00:45:46;;;;;;;9.95;3.65;;;;;;;0.05;nan;101513.75;5062026;28;20111;-70
2022/01/18 00:48:12;;;;;;;7.05;3.53;;;;;;;-0.03;nan;101520.38;5061273;28;20068;-68
2022/01/18 00:50:37;;;;;;;6.85;2.95;;;;;;;-0.12;nan;101497.03;5072978;28;20024;-69
2022/01/18 00:53:08;;;;;;;7.05;3.10;;;;;;;-0.05;nan;101521.47;5067211;28;20040;-70
2022/01/18 00:55:37;;;;;;;5.07;2.85;;;;;;;-0.08;nan;101522.53;5055699;28;20036;-71
2022/01/18 00:58:02;;;;;;;5.97;3.10;;;;;;;-0.03;nan;101524.75;5056347;28;20032;-70
2022/01/18 01:00:28;;;;;;;4.68;2.58;;;;;;;-0.08;nan;101514.78;5060890;28;20028;-70
2022/01/18 01:02:53;;;;;;;5.25;2.90;;;;;;;-0.02;nan;101531.59;5051258;28;20046;-70
2022/01/18 01:05:18;;;;;;;5.07;2.58;;;;;;;-0.06;nan;101537.94;5074437;28;20044;-71
2022/01/18 01:07:44;;;;;;;12.52;3.13;;;;;;;-0.15;nan;101529.16;5064389;28;20033;-69
2022/01/18 01:10:09;;;;;;;5.47;2.60;;;;;;;-0.14;nan;101540.38;5068334;28;20067;-70
2022/01/18 01:12:35;;;;;;;5.22;2.67;;;;;;;-0.24;nan;101528.19;5054480;28;20123;-70
2022/01/18 01:15:08;;;;;;;4.60;2.80;;;;;;;-0.39;nan;101489.78;5054140;28;20170;-70
2022/01/18 01:34:15;;;;;;;6.28;3.40;;;;;;;-0.48;nan;101536.19;5065672;28;20032;-69
2022/01/18 01:44:46;;;;;;;8.93;3.90;;;;;;;-0.37;nan;101584.47;5061309;28;20044;-69
2022/01/18 01:47:17;;;;;;;10.30;3.70;;;;;;;-0.37;nan;101586.25;5062171;28;20090;-69
2022/01/18 01:49:44;;;;;;;10.80;4.03;;;;;;;-0.36;nan;101588.72;5050333;28;20032;-69
2022/01/18 01:52:11;;;;;;;7.68;3.85;;;;;;;-0.42;nan;101589.19;5056248;28;20086;-69
2022/01/18 01:54:38;;;;;;;9.05;3.70;;;;;;;-0.44;nan;101604.84;5072138;28;20421;-70
2022/01/18 01:57:05;;;;;;;8.32;3.97;;;;;;;-0.46;nan;101613.66;5064591;28;20029;-69
2022/01/18 01:59:31;;;;;;;12.38;5.05;;;;;;;-0.50;nan;101607.13;5072429;28;20097;-69
2022/01/18 02:01:56;;;;;;;11.85;4.70;;;;;;;-0.79;nan;101562.84;5046396;28;20029;-69
2022/01/18 02:04:22;;;;;;;9.40;4.30;;;;;;;-0.58;nan;101618.06;5061814;28;20048;-68
2022/01/18 02:06:47;;;;;;;14.65;4.68;;;;;;;-0.75;nan;101601.28;5070215;28;20029;-68
2022/01/18 02:09:13;;;;;;;8.40;4.18;;;;;;;-0.58;nan;101630.16;5053868;28;20474;-68
2022/01/18 02:11:38;;;;;;;11.52;4.80;;;;;;;-0.53;nan;101638.38;5054188;28;20082;-68
2022/01/18 02:14:12;;;;;;;8.15;4.05;;;;;;;-0.58;nan;101656.03;5051414;28;20036;-68
2022/01/18 02:22:06;;;;;;;8.05;3.78;;;;;;;-0.68;nan;101650.78;5071500;28;20044;-68
2022/01/18 02:24:32;;;;;;;8.93;3.88;;;;;;;-0.71;nan;101654.41;5062317;28;20036;-67
2022/01/18 02:26:57;;;;;;;8.63;4.22;;;;;;;-0.77;nan;101644.53;5057665;28;20037;-68
2022/01/18 02:29:23;;;;;;;12.90;5.13;;;;;;;-0.77;nan;101654.06;5074343;28;20036;-69
2022/01/18 02:31:48;;;;;;;12.25;5.55;;;;;;;-0.87;nan;101648.78;5067120;28;20139;-69
2022/01/18 02:34:19;;;;;;;8.48;3.80;;;;;;;-0.90;nan;101646.44;5042318;28;20052;-68
2022/01/18 02:36:45;;;;;;;7.55;4.53;;;;;;;-1.02;nan;101640.47;5075330;28;20032;-68
2022/01/18 02:39:12;;;;;;;12.10;4.53;;;;;;;-0.96;nan;101652.94;5061870;28;20226;-68
2022/01/18 02:41:37;;;;;;;9.35;4.55;;;;;;;-1.11;nan;101649.75;5075392;28;20080;-68
2022/01/18 02:44:10;;;;;;;12.20;4.43;;;;;;;-1.05;nan;101652.78;5068361;28;20089;-68
2022/01/18 02:46:36;;;;;;;9.45;4.13;;;;;;;-1.13;nan;101651.63;5056802;28;20040;-68
2022/01/18 02:49:03;;;;;;;7.78;3.88;;;;;;;-1.30;nan;101627.06;5069061;28;20043;-68
2022/01/18 02:51:29;;;;;;;10.27;3.95;;;;;;;-1.19;nan;101656.47;5046317;28;20147;-70
2022/01/18 02:54:02;;;;;;;7.25;3.78;;;;;;;-1.24;nan;101656.81;5068592;28;20453;-67
2022/01/18 02:56:32;;;;;;;9.13;3.88;;;;;;;-1.25;nan;101657.72;5074368;28;20040;-67
2022/01/18 02:59:46;;;;;;;9.23;3.70;;;;;;;-1.23;nan;101670.53;5069184;28;20106;-67
2022/01/18 03:04:37;;;;;;;7.10;3.85;;;;;;;-1.34;nan;101658.41;5059009;28;20045;-67
2022/01/18 03:07:02;;;;;;;7.00;3.60;;;;;;;-1.32;nan;101665.16;5067122;28;20036;-68
2022/01/18 03:09:28;;;;;;;9.02;3.90;;;;;;;-1.39;nan;101661.38;5075127;28;20360;-68
2022/01/18 03:11:53;;;;;;;8.75;3.60;;;;;;;-1.34;nan;101673.91;5074362;28;20751;-68
2022/01/18 03:14:19;;;;;;;10.75;3.88;;;;;;;-1.35;nan;101670.53;5074906;28;20036;-69
2022/01/18 03:16:44;;;;;;;7.97;3.45;;;;;;;-1.38;nan;101667.38;5064637;28;20359;-68
2022/01/18 03:19:10;;;;;;;6.88;3.50;;;;;;;-1.43;nan;101675.47;5075678;28;20040;-68
2022/01/18 03:21:35;;;;;;;10.73;3.63;;;;;;;-1.42;nan;101679.66;5074741;28;20374;-69
2022/01/18 03:24:20;;;;;;;7.03;3.17;;;;;;;-1.47;nan;101670.63;5060282;28;20041;-69
2022/01/18 03:29:29;;;;;;;7.80;3.17;;;;;;;-1.50;nan;101685.41;5067903;28;20387;-69
2022/01/18 03:31:55;;;;;;;6.60;3.10;;;;;;;-1.36;nan;101691.31;5069163;28;20024;-69
2022/01/18 03:34:21;;;;;;;7.38;2.95;;;;;;;-1.40;nan;101697.66;5071724;28;20037;-69
2022/01/18 03:36:47;;;;;;;7.90;3.10;;;;;;;-1.41;nan;101688.25;5058172;28;20504;-70
2022/01/18 03:39:12;;;;;;;6.18;3.13;;;;;;;-1.43;nan;101687.56;5074642;28;20123;-69
2022/01/18 03:41:38;;;;;;;8.35;3.10;;;;;;;-1.53;nan;101682.25;5074540;28;20076;-68
2022/01/18 03:44:04;;;;;;;6.30;3.13;;;;;;;-1.46;nan;101685.19;5050152;28;20170;-68
2022/01/18 03:46:31;;;;;;;5.32;2.80;;;;;;;-1.51;nan;101680.34;5056178;28;20039;-68
2022/01/18 03:48:58;;;;;;;5.70;2.80;;;;;;;-1.58;nan;101671.41;5072847;28;20028;-68
2022/01/18 03:51:23;;;;;;;6.32;2.78;;;;;;;-1.52;nan;101681.31;5074589;28;20037;-68
2022/01/18 03:53:51;;;;;;;5.68;2.67;;;;;;;-1.56;nan;101697.97;5074558;28;20143;-68
2022/01/18 03:56:17;;;;;;;5.82;2.83;;;;;;;-1.69;nan;101679.16;5069171;28;20020;-69
2022/01/18 03:58:42;;;;;;;5.63;2.90;;;;;;;-1.60;nan;101709.47;5058232;28;20368;-68
2022/01/18 04:01:08;;;;;;;8.15;3.13;;;;;;;-1.71;nan;101702.50;5055117;28;20490;-69
2022/01/18 04:03:33;;;;;;;5.78;3.00;;;;;;;-1.77;nan;101695.22;5082489;28;20032;-68
2022/01/18 04:05:59;;;;;;;7.70;2.90;;;;;;;-1.68;nan;101716.94;5097327;28;20036;-67
2022/01/18 04:08:25;;;;;;;9.18;3.20;;;;;;;-1.69;nan;101725.63;5088091;28;20028;-68
2022/01/18 04:10:50;;;;;;;9.20;3.50;;;;;;;-1.60;nan;101748.22;5092342;28;20039;-68
2022/01/18 04:13:16;;;;;;;9.30;3.55;;;;;;;-1.71;nan;101742.06;5094278;28;20036;-68
2022/01/18 04:15:42;;;;;;;8.23;3.40;;;;;;;-1.59;nan;101747.25;5080354;28;20478;-68
2022/01/18 04:28:42;;;;;;;10.80;4.07;;;;;;;-1.57;nan;101760.91;5093565;28;20035;-69
2022/01/18 04:31:10;;;;;;;13.82;6.28;;;;;;;-1.68;nan;101750.50;5091310;28;20500;-67
2022/01/18 04:33:37;;;;;;;12.75;6.00;;;;;;;-1.61;nan;101770.63;5092328;28;20496;-68
2022/01/18 04:36:04;;;;;;;11.35;5.55;;;;;;;-1.65;nan;101764.03;5085771;28;20089;-68
2022/01/18 04:38:30;;;;;;;11.50;5.13;;;;;;;-1.63;nan;101776.81;5079616;28;20045;-66
2022/01/18 04:41:01;;;;;;;12.95;5.22;;;;;;;-1.68;nan;101778.91;5086888;28;20032;-68
2022/01/18 04:43:43;;;;;;;9.88;4.68;;;;;;;-1.69;nan;101783.28;5083399;28;20058;-69
2022/01/18 04:49:06;;;;;;;9.30;4.72;;;;;;;-1.84;nan;101774.88;5043937;28;20103;-68
2022/01/18 04:51:32;;;;;;;11.38;4.22;;;;;;;-1.78;nan;101784.75;5038740;28;20040;-68
2022/01/18 04:54:00;;;;;;;13.75;5.57;;;;;;;-1.71;nan;101800.63;5043300;28;20056;-66
2022/01/18 04:59:07;;;;;;;28.20;10.57;;;;;;;-1.73;nan;101808.47;5034690;28;20415;-69
2022/01/18 05:01:34;;;;;;;23.15;9.55;;;;;;;-1.77;nan;101804.47;5018626;28;20082;-68
2022/01/18 05:04:00;;;;;;;22.20;9.10;;;;;;;-1.68;nan;101802.16;5022200;28;20041;-68
2022/01/18 05:06:25;;;;;;;14.65;6.28;;;;;;;-1.71;nan;101800.63;5040169;28;20545;-69
2022/01/18 05:08:51;;;;;;;15.25;5.30;;;;;;;-1.63;nan;101818.97;5040120;28;20045;-69
2022/01/18 05:11:19;;;;;;;22.42;7.07;;;;;;;-1.72;nan;101815.31;5043700;28;20601;-69
2022/01/18 05:24:26;;;;;;;15.15;6.07;;;;;;;-1.90;nan;101823.53;5044339;28;20033;-70
2022/01/18 05:26:54;;;;;;;14.27;6.50;;;;;;;-1.89;nan;101827.75;5077311;28;20107;-70
2022/01/18 05:29:20;;;;;;;15.68;6.47;;;;;;;-1.97;nan;101828.28;5084382;28;20036;-70
2022/01/18 05:31:46;;;;;;;15.05;6.88;;;;;;;-1.93;nan;101842.66;5092182;28;20035;-70
2022/01/18 05:34:12;;;;;;;20.42;8.18;;;;;;;-2.07;nan;101822.94;5089816;28;20043;-74
2022/01/18 05:36:37;;;;;;;21.38;9.23;;;;;;;-2.25;nan;101811.31;5089788;28;20028;-74
2022/01/18 05:39:04;;;;;;;23.25;11.10;;;;;;;-2.23;nan;101828.34;5070999;28;20032;-74
2022/01/18 05:41:30;;;;;;;23.08;10.73;;;;;;;-2.25;nan;101831.97;5083174;28;20044;-74
2022/01/18 05:43:55;;;;;;;23.48;10.68;;;;;;;-2.25;nan;101840.56;5079518;28;20028;-74
2022/01/18 05:46:21;;;;;;;36.25;13.30;;;;;;;-2.28;nan;101842.50;5087807;28;20035;-74
2022/01/18 05:48:46;;;;;;;38.08;15.32;;;;;;;-2.21;nan;101844.56;5090864;28;20119;-76
2022/01/18 05:51:12;;;;;;;36.83;13.38;;;;;;;-2.30;nan;101826.31;5092476;28;20032;-74
2022/01/18 05:53:39;;;;;;;33.83;13.55;;;;;;;-2.32;nan;101829.00;5085200;28;20117;-73
2022/01/18 05:56:08;;;;;;;33.92;13.57;;;;;;;-2.27;nan;101826.13;5090214;28;20032;-74
2022/01/18 05:58:33;;;;;;;25.80;9.80;;;;;;;-2.25;nan;101837.97;5091755;28;20032;-74
2022/01/18 06:00:58;;;;;;;41.28;13.95;;;;;;;-2.21;nan;101839.38;5082807;28;20035;-74
2022/01/18 06:03:35;;;;;;;34.30;13.50;;;;;;;-2.22;nan;101837.75;5079847;28;20033;-75
2022/01/18 06:08:44;;;;;;;46.78;17.63;;;;;;;-2.25;nan;101837.13;5083422;28;20114;-69
2022/01/18 06:11:10;;;;;;;49.85;17.13;;;;;;;-2.31;nan;101840.97;5081044;28;20040;-68
2022/01/18 06:13:36;;;;;;;35.10;14.52;;;;;;;-2.29;nan;101851.19;5078004;28;20082;-69
2022/01/18 06:16:02;;;;;;;24.58;10.15;;;;;;;-2.21;nan;101869.53;5085924;28;20040;-68
2022/01/18 06:18:28;;;;;;;24.67;9.82;;;;;;;-2.20;nan;101866.03;5076279;28;20032;-69
2022/01/18 06:20:53;;;;;;;30.02;11.27;;;;;;;-2.17;nan;101850.34;5085050;28;20097;-69
2022/01/18 06:23:20;;;;;;;20.08;9.15;;;;;;;-2.08;nan;101866.94;5072217;28;20402;-67
2022/01/18 06:25:45;;;;;;;31.10;11.27;;;;;;;-2.12;nan;101866.31;5075523;28;20039;-67
2022/01/18 06:28:11;;;;;;;19.38;9.70;;;;;;;-2.22;nan;101883.38;5078573;28;20028;-67
2022/01/18 06:30:36;;;;;;;38.70;17.50;;;;;;;-2.51;nan;101872.44;5077955;28;20028;-68
2022/01/18 06:33:02;;;;;;;37.83;16.55;;;;;;;-2.51;nan;101891.34;5081675;28;20044;-68
2022/01/18 06:35:28;;;;;;;36.28;15.80;;;;;;;-2.54;nan;101888.13;5079703;28;20043;-69
2022/01/18 06:37:53;;;;;;;35.63;17.70;;;;;;;-2.46;nan;101896.19;5089532;28;20032;-68
2022/01/18 06:40:19;;;;;;;36.85;15.48;;;;;;;-2.51;nan;101895.63;5078377;28;20035;-69
2022/01/18 06:42:44;;;;;;;39.42;16.35;;;;;;;-2.47;nan;101895.34;5089978;28;20043;-69
2022/01/18 06:45:10;;;;;;;49.00;18.33;;;;;;;-2.41;nan;101899.28;5091451;28;20040;-69
2022/01/18 06:47:37;;;;;;;47.42;18.15;;;;;;;-2.48;nan;101874.81;5077147;28;20142;-68
2022/01/18 06:50:04;;;;;;;48.05;17.45;;;;;;;-2.32;nan;101890.06;5076935;28;20482;-71
2022/01/18 06:55:06;;;;;;;32.72;13.55;;;;;;;-2.40;nan;101885.44;5024959;22;20115;-69
2022/01/18 06:57:32;;;;;;;28.42;12.32;;;;;;;-2.36;nan;101905.78;5013091;28;20034;-69
2022/01/18 06:59:57;;;;;;;27.15;12.80;;;;;;;-2.46;nan;101889.28;5029420;28;20044;-69
2022/01/18 07:02:23;;;;;;;25.30;10.77;;;;;;;-2.42;nan;101897.59;5030571;28;20036;-69
2022/01/18 07:04:48;;;;;;;30.30;11.40;;;;;;;-2.37;nan;101896.38;5033302;28;20037;-67
2022/01/18 07:07:14;;;;;;;27.48;10.55;;;;;;;-2.31;nan;101902.88;5032210;28;20037;-67
2022/01/18 07:09:39;;;;;;;32.47;12.07;;;;;;;-2.34;nan;101876.47;5013796;28;20083;-67
2022/01/18 07:12:10;;;;;;;27.23;11.38;;;;;;;-2.19;nan;101896.06;5033581;28;20120;-66
2022/01/18 07:14:35;;;;;;;32.60;12.27;;;;;;;-2.18;nan;101884.81;5033100;28;20029;-69
2022/01/18 07:17:01;;;;;;;29.10;12.25;;;;;;;-2.16;nan;101881.19;5015261;28;20076;-70
2022/01/18 07:19:26;;;;;;;24.48;10.68;;;;;;;-2.01;nan;101912.03;5016590;28;20514;-68
2022/01/18 07:21:52;;;;;;;29.55;13.23;;;;;;;-2.01;nan;101901.69;5034466;28;20036;-68
2022/01/18 07:24:25;;;;;;;35.45;13.57;;;;;;;-1.95;nan;101906.47;5011625;28;20057;-69
2022/01/18 07:26:50;;;;;;;33.67;13.38;;;;;;;-1.95;nan;101924.53;5033036;28;20029;-67
2022/01/18 07:29:16;;;;;;;46.72;17.02;;;;;;;-1.87;nan;101919.66;5032844;28;20033;-67
2022/01/18 07:31:41;;;;;;;42.95;15.52;;;;;;;-1.87;nan;101913.66;5029987;28;20041;-68
2022/01/18 07:34:07;;;;;;;41.08;17.73;;;;;;;-1.76;nan;101917.16;5007541;28;20030;-69
2022/01/18 07:36:32;;;;;;;50.17;17.88;;;;;;;-1.69;nan;101919.31;5012695;28;20033;-68
2022/01/18 07:38:57;;;;;;;42.65;17.80;;;;;;;-1.56;nan;101920.09;5015522;28;20518;-68
2022/01/18 07:41:23;;;;;;;36.83;14.77;;;;;;;-1.50;nan;101923.06;5015146;28;20049;-69
2022/01/18 07:43:48;;;;;;;39.58;15.07;;;;;;;-1.40;nan;101933.59;5033958;28;20033;-68
2022/01/18 07:46:14;;;;;;;34.03;13.85;;;;;;;-1.39;nan;101922.34;5032126;28;20033;-68
2022/01/18 07:48:39;;;;;;;34.05;14.10;;;;;;;-1.26;nan;101944.72;5010177;28;20052;-69
2022/01/18 07:51:05;;;;;;;24.17;10.50;;;;;;;-1.25;nan;101943.75;5026851;28;20037;-67
2022/01/18 07:53:30;;;;;;;146.90;29.73;;;;;;;-1.32;nan;101935.63;5033289;28;20093;-67
2022/01/18 07:55:56;;;;;;;22.98;8.40;;;;;;;-1.24;nan;101930.75;5031775;28;20044;-67
2022/01/18 07:58:21;;;;;;;22.63;6.93;;;;;;;-1.33;nan;101928.81;5034397;28;20494;-70
2022/01/18 08:00:49;;;;;;;14.30;5.53;;;;;;;-1.41;nan;101933.69;5031624;28;20033;-71
2022/01/18 08:03:15;;;;;;;13.38;5.38;;;;;;;-1.44;nan;101942.47;5015992;28;20411;-69
2022/01/18 08:05:41;;;;;;;18.77;6.00;;;;;;;-1.47;nan;101926.38;5029975;28;20052;-69
2022/01/18 08:08:07;;;;;;;16.38;6.45;;;;;;;-1.39;nan;101952.50;5033872;28;20437;-68
2022/01/18 08:10:32;;;;;;;23.55;8.48;;;;;;;-1.37;nan;101942.88;5011158;28;20570;-70
2022/01/18 08:13:01;;;;;;;14.20;6.22;;;;;;;-1.47;nan;101940.13;5016068;28;20352;-67
2022/01/18 08:15:36;;;;;;;17.98;6.18;;;;;;;-1.43;nan;101946.72;5032806;28;20525;-67
2022/01/18 08:18:02;;;;;;;24.60;7.13;;;;;;;-1.33;nan;101965.81;5022086;28;20124;-68
2022/01/18 08:20:27;;;;;;;19.25;7.13;;;;;;;-1.24;nan;101979.84;5029808;28;20037;-68
2022/01/18 08:22:53;;;;;;;18.27;6.80;;;;;;;-1.25;nan;101967.84;5024588;28;20537;-68
2022/01/18 08:25:18;;;;;;;21.55;6.93;;;;;;;-1.29;nan;101958.69;5011589;28;20037;-68
2022/01/18 08:27:45;;;;;;;19.05;6.43;;;;;;;-1.18;nan;101963.06;5014890;28;20044;-68
2022/01/18 08:30:12;;;;;;;23.17;7.50;;;;;;;-1.05;nan;101979.38;5011154;28;20041;-69
2022/01/18 08:32:38;;;;;;;24.35;6.88;;;;;;;-1.08;nan;101971.81;5008216;28;20036;-68
2022/01/18 08:35:05;;;;;;;20.38;6.32;;;;;;;-0.93;nan;101988.81;5031690;28;20687;-68
2022/01/18 08:37:31;;;;;;;19.25;6.70;;;;;;;-0.88;nan;101994.50;5033303;28;20029;-68
2022/01/18 08:39:56;;;;;;;17.30;5.75;;;;;;;-0.90;nan;101998.94;5033052;28;20067;-68
2022/01/18 08:42:22;;;;;;;14.02;5.40;;;;;;;-0.89;nan;101997.19;5032623;28;20451;-68
2022/01/18 08:44:47;;;;;;;18.30;6.10;;;;;;;-0.81;nan;102000.06;5033367;28;20041;-69
2022/01/18 08:47:14;;;;;;;15.82;6.03;;;;;;;-0.86;nan;101997.78;5030992;28;20037;-68
2022/01/18 08:49:40;;;;;;;21.73;6.20;;;;;;;-0.69;nan;102021.63;5026345;28;20585;-68
2022/01/18 08:52:06;;;;;;;17.23;6.53;;;;;;;-0.68;nan;102015.50;5013104;28;20053;-69
2022/01/18 08:54:34;;;;;;;24.67;7.45;;;;;;;-0.73;nan;102005.47;5013922;28;20427;-68
2022/01/18 08:56:59;;;;;;;19.42;6.15;;;;;;;-0.70;nan;102005.25;5030669;28;20029;-69
2022/01/18 08:59:25;;;;;;;17.30;6.32;;;;;;;-0.65;nan;102034.22;5022648;28;20029;-69
2022/01/18 09:01:50;;;;;;;17.27;5.90;;;;;;;-0.66;nan;102022.22;5013042;28;20119;-69
2022/01/18 09:04:16;;;;;;;18.10;6.30;;;;;;;-0.72;nan;102012.31;5025491;28;20063;-69
2022/01/18 09:06:44;;;;;;;14.77;5.57;;;;;;;-0.58;nan;102033.75;5013549;28;20073;-67
2022/01/18 09:09:11;;;;;;;14.07;5.88;;;;;;;-0.70;nan;102023.34;5011249;28;20037;-68
2022/01/18 09:11:37;;;;;;;15.80;5.88;;;;;;;-0.57;nan;102046.59;5025758;28;20069;-68
2022/01/18 09:14:02;;;;;;;26.85;7.30;;;;;;;-0.44;nan;102051.69;5016797;28;20577;-69
2022/01/18 09:16:27;;;;;;;16.23;6.53;;;;;;;-0.34;nan;102038.91;5025149;28;20136;-69
2022/01/18 09:18:53;;;;;;;19.08;6.47;;;;;;;-0.27;nan;102050.44;5016657;28;20530;-68
2022/01/18 09:21:19;;;;;;;19.17;6.93;;;;;;;-0.08;nan;102053.31;5003668;28;20040;-68
2022/01/18 09:23:44;;;;;;;21.70;7.28;;;;;;;;;;5030777;28;20497;-71
2022/01/18 09:26:09;;;;;;;21.38;6.07;;;;;;;;;;5031926;28;20034;-68
2022/01/18 09:28:35;;;;;;;13.10;5.72;;;;;;;;;;5031799;28;20025;-68
2022/01/18 09:31:00;;;;;;;12.15;5.47;;;;;;;;;;5030318;28;20119;-66
2022/01/18 09:33:26;;;;;;;14.45;5.78;;;;;;;;;;5011160;28;20038;-67
2022/01/18 09:35:51;;;;;;;19.58;5.43;;;;;;;;;;5026655;28;20037;-67
2022/01/18 09:38:16;;;;;;;15.27;6.00;;;;;;;;;;5013598;28;20422;-69
2022/01/18 09:40:43;;;;;;;13.63;5.10;;;;;;;;;;5008059;28;20309;-67
2022/01/18 09:43:12;;;;;;;11.50;4.80;;;;;;;0.18;nan;102033.25;5029838;28;20709;-68
2022/01/18 09:45:39;;;;;;;19.73;6.45;;;;;;;0.18;nan;102035.84;5028542;28;20036;-68
2022/01/18 09:48:05;;;;;;;18.80;6.50;;;;;;;0.12;nan;102038.91;5029438;28;20072;-68
2022/01/18 09:50:34;;;;;;;14.30;5.93;;;;;;;0.17;nan;102046.34;5023558;28;20057;-67
2022/01/18 09:53:00;;;;;;;21.85;6.47;;;;;;;0.40;nan;102063.50;5032045;28;20033;-67
2022/01/18 09:55:29;;;;;;;21.90;6.22;;;;;;;0.48;nan;102052.59;5018891;28;20029;-70
2022/01/18 09:57:56;;;;;;;15.13;6.20;;;;;;;0.52;nan;102053.97;5009995;28;20029;-67
2022/01/18 10:00:25;;;;;;;13.80;6.13;;;;;;;0.56;nan;102063.19;5028904;28;20039;-68
2022/01/18 10:02:50;;;;;;;20.52;7.13;;;;;;;0.53;nan;102052.25;5031623;28;20040;-67
2022/01/18 10:05:18;;;;;;;22.45;6.95;;;;;;;0.57;nan;102067.41;5011288;28;20038;-68
2022/01/18 10:07:43;;;;;;;20.85;6.55;;;;;;;0.55;nan;102063.28;5028282;28;20049;-68
2022/01/18 10:10:09;;;;;;;20.60;6.90;;;;;;;0.47;nan;102048.34;5030253;28;20037;-67
2022/01/18 10:12:35;;;;;;;15.98;6.07;;;;;;;0.57;nan;102051.03;5031188;28;20028;-66
2022/01/18 10:15:04;;;;;;;90.65;41.75;;;;;;;0.76;nan;102053.84;5026466;28;20033;-67
2022/01/18 10:17:30;;;;;;;;;;;;;;;0.87;nan;102059.97;5009849;28;20061;-68
2022/01/18 10:20:03;;;;;;;15.60;7.65;;;;;;;1.02;nan;102072.56;5031035;28;20386;-68
2022/01/18 10:22:40;;;;;;;15.52;5.13;;;;;;;0.84;nan;102068.84;5029679;28;20112;-68
2022/01/18 10:25:21;;;;;;;11.02;5.18;;;;;;;0.77;nan;102071.06;5031815;28;20065;-69
2022/01/18 10:27:49;;;;;;;14.60;5.63;;;;;;;0.76;nan;102053.84;5012078;28;20038;-72
2022/01/18 10:30:23;;;;;;;16.55;5.88;;;;;;;0.68;nan;102058.81;5014434;28;20033;-72
2022/01/18 10:33:15;;;;;;;15.32;5.22;;;;;;;0.91;nan;102067.41;5018053;28;20037;-72
2022/01/18 10:36:11;;;;;;;16.98;5.80;;;;;;;1.12;nan;102064.88;5021133;28;20033;-72
2022/01/18 10:38:44;;;;;;;19.80;6.13;;;;;;;1.23;nan;102051.06;5010631;28;20057;-72
2022/01/18 10:41:27;;;;;;;14.35;5.50;;;;;;;1.34;nan;102070.94;5016649;28;20029;-72
2022/01/18 10:44:08;;;;;;;15.50;5.43;;;;;;;1.41;nan;102059.13;5034599;28;20044;-71
2022/01/18 10:46:43;;;;;;;13.88;5.53;;;;;;;1.36;nan;102051.69;5030456;28;20037;-72
2022/01/18 10:49:09;;;;;;;15.32;5.47;;;;;;;1.39;nan;102056.66;5035459;28;20065;-75
2022/01/18 10:51:38;;;;;;;15.07;4.60;;;;;;;1.47;nan;102061.22;5034815;28;20037;-71
2022/01/18 10:54:07;;;;;;;13.73;5.00;;;;;;;1.40;nan;102057.47;5034957;28;20041;-74
2022/01/18 10:56:42;;;;;;;19.20;6.10;;;;;;;1.36;nan;102062.09;5034860;28;20029;-71
2022/01/18 10:59:24;;;;;;;17.45;6.47;;;;;;;1.35;nan;102065.63;5034653;28;20037;-71
2022/01/18 11:02:13;;;;;;;14.98;5.93;;;;;;;1.38;nan;102065.38;5035523;28;20037;-71
2022/01/18 11:04:40;;;;;;;19.17;5.90;;;;;;;1.29;nan;102066.13;5031495;28;20029;-71
2022/01/18 11:07:06;;;;;;;16.95;6.47;;;;;;;1.32;nan;102065.03;5034153;28;20286;-72
2022/01/18 11:09:32;;;;;;;21.63;6.60;;;;;;;1.35;nan;102072.59;5034432;28;20120;-72
2022/01/18 11:11:58;;;;;;;13.23;4.95;;;;;;;1.14;nan;102062.97;5035109;28;20030;-70
2022/01/18 11:14:25;;;;;;;21.10;5.50;;;;;;;1.13;nan;102058.75;5035223;28;20064;-70
2022/01/18 11:16:55;;;;;;;18.67;6.47;;;;;;;1.31;nan;102069.41;5031237;28;20053;-68
2022/01/18 11:21:48;;;;;;;18.60;5.55;;;;;;;1.18;nan;102056.59;5033584;28;20041;-72
2022/01/18 11:24:18;;;;;;;23.15;7.32;;;;;;;1.20;nan;102064.28;5032297;28;20033;-72
2022/01/18 11:26:45;;;;;;;21.52;5.25;;;;;;;1.25;nan;102059.53;5015638;28;20049;-71
2022/01/18 11:29:12;;;;;;;17.40;6.15;;;;;;;1.13;nan;102057.94;5031235;28;20038;-70
2022/01/18 11:31:38;;;;;;;16.20;5.65;;;;;;;1.06;nan;102042.03;5034115;28;20033;-71
2022/01/18 11:34:07;;;;;;;13.32;4.85;;;;;;;1.14;nan;102051.78;5016562;28;20037;-72
2022/01/18 11:36:39;;;;;;;14.70;6.40;;;;;;;1.23;nan;102061.44;5015074;28;20032;-70
2022/01/18 11:39:07;;;;;;;15.27;5.88;;;;;;;1.12;nan;102048.47;5033406;28;20067;-70
2022/01/18 11:41:35;;;;;;;15.77;5.30;;;;;;;1.42;nan;102055.59;5033937;28;20108;-69
2022/01/18 11:44:19;;;;;;;13.07;5.35;;;;;;;1.49;nan;102035.97;5034262;28;20041;-72
2022/01/18 11:46:50;;;;;;;17.48;6.70;;;;;;;1.73;nan;102060.88;5034077;28;20164;-70
2022/01/18 11:49:22;;;;;;;18.85;6.47;;;;;;;1.85;nan;102068.50;5034010;28;20040;-69
2022/01/18 11:51:52;;;;;;;15.85;5.50;;;;;;;2.03;nan;102078.31;5032348;28;20694;-70
2022/01/18 11:57:22;;;;;;;;;;;;;;;2.12;nan;102086.16;5034718;28;20061;-70
2022/01/18 11:59:52;;;;;;;12.07;4.55;;;;;;;2.10;nan;102084.63;5033027;28;19912;-70
2022/01/18 12:02:33;;;;;;;18.80;6.10;;;;;;;1.95;nan;102097.13;5032908;28;20037;-71
2022/01/18 12:05:06;;;;;;;17.70;5.82;;;;;;;2.00;nan;102086.34;5003692;28;20091;-71
2022/01/18 12:07:34;;;;;;;15.43;5.93;;;;;;;1.99;nan;102082.09;5010644;28;20040;-71
2022/01/18 12:10:33;;;;;;;19.80;5.88;;;;;;;1.99;nan;102092.50;5031230;28;20052;-69
2022/01/18 12:13:10;;;;;;;17.33;6.80;;;;;;;1.89;nan;102079.44;5033300;28;20103;-69
2022/01/18 12:15:36;;;;;;;21.05;6.80;;;;;;;1.97;nan;102100.44;5032160;28;20389;-69
2022/01/18 12:18:16;;;;;;;12.18;5.00;;;;;;;1.90;nan;102101.88;5030441;28;20553;-70
2022/01/18 12:20:44;;;;;;;21.52;7.45;;;;;;;1.88;nan;102104.59;5030428;28;20090;-71
2022/01/18 12:23:21;;;;;;;16.88;5.85;;;;;;;1.87;nan;102102.97;5015361;28;20049;-72
2022/01/18 12:26:02;;;;;;;13.65;4.65;;;;;;;1.51;nan;102051.41;5014270;28;20040;-72
2022/01/18 12:34:28;;;;;;;13.30;4.45;;;;;;;2.04;nan;102108.53;5031586;28;20041;-71
2022/01/18 12:37:13;;;;;;;15.02;5.60;;;;;;;2.12;nan;102100.94;5031351;28;20033;-71
2022/01/18 12:44:20;;;;;;;17.65;4.78;;;;;;;2.09;nan;102107.22;5033373;28;20037;-71
2022/01/18 12:45:24;;;;;;;15.18;4.15;;;;;;;2.03;nan;102112.06;5026729;28;20056;-71
2022/01/18 12:47:58;;;;;;;10.02;4.63;;;;;;;2.03;nan;102104.28;5022468;28;20030;-71
2022/01/18 12:50:31;;;;;;;15.18;5.47;;;;;;;1.99;nan;102097.69;5015450;28;20038;-71
2022/01/18 12:53:08;;;;;;;14.13;4.85;;;;;;;1.94;nan;102089.44;5028087;28;20033;-71
2022/01/18 12:55:58;;;;;;;14.13;5.20;;;;;;;1.94;nan;102108.47;5028925;28;20045;-71
2022/01/18 12:58:25;;;;;;;11.93;4.78;;;;;;;1.94;nan;102107.63;5013837;28;20478;-71
2022/01/18 13:01:09;;;;;;;17.30;5.63;;;;;;;1.99;nan;102115.88;5032782;28;20037;-72
2022/01/18 13:03:35;;;;;;;20.50;6.85;;;;;;;1.98;nan;102111.63;5031042;28;20037;-71
2022/01/18 13:06:03;;;;;;;12.23;5.30;;;;;;;2.03;nan;102112.06;5023697;28;20399;-71
2022/01/18 13:08:40;;;;;;;19.58;5.45;;;;;;;2.00;nan;102126.16;5031574;28;20044;-70
2022/01/18 13:11:05;;;;;;;11.43;5.05;;;;;;;1.99;nan;102127.09;5024628;28;20057;-71
2022/01/18 13:13:33;;;;;;;17.60;6.20;;;;;;;2.01;nan;102133.00;5014548;28;20063;-71
2022/01/18 13:22:53;;;;;;;15.32;6.15;;;;;;;1.92;nan;102133.75;5015554;28;20144;-71